Shipley, Arizona
Current Conditions -  °F | °C
As of 1:51 AM on Monday 22 Dec 2014 (Local Time) from KIGM Reporting Station
Clear Clear  
Wind Chill: 38°   Ceiling: Unl
Heat Index: 38°   Visibility: NA
Dew Point: 34°   Wind: 0mph
Humidity: 86%   Direction: NA
Pressure: 30.08"   Gusts: NA
Location:  35.5603°N, 113.544°W
Report Text: KIGM 220851Z AUTO 00000KT CLR 03/01 A3008 RMK AO2 SLP155 T00330011 58008 $
Loading
Personal Weather Stations






























Interactive Weather Map New forecast layout! Learn more

10-Day Weather Forecast

Advertisements
Track Severe Weather on mobile